createdAt,value
2022-10-11T00:00:42.282Z,15.36
2022-10-11T00:01:39.134Z,16.37
2022-10-11T00:02:35.890Z,16.30
2022-10-11T00:03:32.654Z,15.90
2022-10-11T00:04:29.357Z,16.17
2022-10-11T00:05:26.438Z,15.73
2022-10-11T00:06:23.132Z,16.02
2022-10-11T00:07:20.601Z,15.73
2022-10-11T00:08:17.286Z,16.17
2022-10-11T00:09:14.794Z,16.22
2022-10-11T00:10:11.562Z,16.25
2022-10-11T00:11:08.597Z,15.88
2022-10-11T00:12:05.608Z,15.90
2022-10-11T00:13:02.686Z,15.69
2022-10-11T00:13:59.415Z,16.06
2022-10-11T00:14:56.239Z,16.14
2022-10-11T00:15:53.378Z,16.18
2022-10-11T00:16:50.167Z,15.88
2022-10-11T00:17:47.180Z,15.82
2022-10-11T00:18:43.862Z,16.37
2022-10-11T00:19:40.559Z,16.31
2022-10-11T00:20:37.282Z,16.00
2022-10-11T00:21:33.986Z,14.93
2022-10-11T00:22:30.692Z,15.79
2022-10-11T00:23:27.367Z,16.23
2022-10-11T00:24:24.235Z,16.22
2022-10-11T00:25:20.931Z,16.14
2022-10-11T00:26:18.090Z,16.11
2022-10-11T00:27:14.980Z,16.11
2022-10-11T00:28:11.733Z,16.18
2022-10-11T00:29:08.628Z,16.00
2022-10-11T00:30:07.163Z,16.25
2022-10-11T00:31:11.632Z,16.26
2022-10-11T00:32:08.344Z,16.27
2022-10-11T00:33:05.114Z,15.88
2022-10-11T00:34:01.850Z,16.00
2022-10-11T00:35:04.534Z,15.93
2022-10-11T00:36:01.671Z,16.20
2022-10-11T00:36:58.748Z,16.17
2022-10-11T00:37:57.320Z,16.23
2022-10-11T00:38:54.106Z,15.98
2022-10-11T00:39:50.827Z,16.00
2022-10-11T00:40:47.518Z,15.73
2022-10-11T00:41:44.197Z,15.80
2022-10-11T00:42:41.182Z,15.86
2022-10-11T00:43:38.397Z,15.83
2022-10-11T00:44:35.399Z,15.96
2022-10-11T00:45:32.019Z,15.94
2022-10-11T00:46:32.006Z,15.44
2022-10-11T00:47:28.739Z,15.86
2022-10-11T00:48:40.094Z,15.95
2022-10-11T00:49:46.642Z,16.00
2022-10-11T00:50:43.610Z,15.59
2022-10-11T00:51:57.308Z,15.64
2022-10-11T00:53:00.005Z,15.58
2022-10-11T00:53:56.942Z,15.84
2022-10-11T00:54:53.959Z,15.83
2022-10-11T00:56:03.410Z,14.83
2022-10-11T00:57:06.907Z,15.66
2022-10-11T00:58:04.135Z,15.57
2022-10-11T00:59:05.918Z,15.91
2022-10-11T01:00:08.802Z,15.59
2022-10-11T01:01:05.979Z,15.57
2022-10-11T01:02:04.256Z,15.57
2022-10-11T01:03:01.291Z,15.81
2022-10-11T01:03:58.087Z,15.61
2022-10-11T01:05:11.643Z,16.00
2022-10-11T01:06:11.670Z,15.73
2022-10-11T01:07:10.161Z,15.82
2022-10-11T01:08:08.466Z,15.62
2022-10-11T01:09:05.432Z,15.58
2022-10-11T01:10:02.172Z,15.85
2022-10-11T01:10:59.153Z,15.95
2022-10-11T01:12:00.792Z,15.80
2022-10-11T01:13:23.011Z,15.70
2022-10-11T01:14:47.525Z,15.71
2022-10-11T01:16:09.450Z,15.36
2022-10-11T01:17:13.744Z,15.50
2022-10-11T01:18:21.701Z,15.54
2022-10-11T01:19:39.034Z,15.53
2022-10-11T01:20:48.850Z,15.39
2022-10-11T01:22:02.435Z,14.38
2022-10-11T01:23:02.196Z,15.32
2022-10-11T01:24:10.584Z,15.23
2022-10-11T01:25:16.257Z,15.07
2022-10-11T01:26:34.738Z,15.19
2022-10-11T01:27:48.860Z,15.34
2022-10-11T01:29:02.156Z,15.27
2022-10-11T01:30:20.009Z,15.39
2022-10-11T01:31:45.478Z,15.09
2022-10-11T01:32:59.725Z,15.13
2022-10-11T01:34:06.145Z,15.20
2022-10-11T01:35:20.813Z,14.57
2022-10-11T01:36:33.714Z,15.16
2022-10-11T01:37:36.910Z,15.06
2022-10-11T01:38:51.516Z,15.00
2022-10-11T01:40:00.429Z,15.02
2022-10-11T01:41:04.491Z,15.01
2022-10-11T01:42:05.153Z,14.77
2022-10-11T01:43:04.784Z,14.74
2022-10-11T01:44:05.335Z,14.55
2022-10-11T01:45:02.483Z,14.90
2022-10-11T01:46:02.190Z,14.85
2022-10-11T01:46:59.190Z,14.04
2022-10-11T01:48:08.064Z,14.27
2022-10-11T01:49:05.597Z,14.70
2022-10-11T01:50:02.932Z,14.84
2022-10-11T01:51:03.962Z,14.40
2022-10-11T01:52:05.926Z,14.79
2022-10-11T01:53:17.631Z,14.95
2022-10-11T01:54:56.972Z,14.96
2022-10-11T01:56:04.651Z,14.97
2022-10-11T01:57:16.459Z,14.91
2022-10-11T01:58:40.975Z,14.78
2022-10-11T01:59:43.464Z,15.07
2022-10-11T02:01:09.257Z,15.07
2022-10-11T02:02:29.871Z,15.18
2022-10-11T02:03:47.250Z,14.98
2022-10-11T02:04:49.969Z,14.22
2022-10-11T02:05:46.600Z,15.11
2022-10-11T02:06:56.585Z,14.80
2022-10-11T02:08:25.669Z,14.82
2022-10-11T02:09:50.330Z,14.89
2022-10-11T02:10:53.702Z,15.12
2022-10-11T02:11:55.829Z,14.21
2022-10-11T02:13:02.529Z,15.11
2022-10-11T02:14:13.981Z,15.12
2022-10-11T02:15:14.589Z,15.05
2022-10-11T02:16:17.571Z,15.10
2022-10-11T02:17:20.066Z,14.91
2022-10-11T02:18:23.530Z,15.13
2022-10-11T02:19:27.475Z,14.58
2022-10-11T02:20:28.086Z,15.00
2022-10-11T02:21:26.174Z,14.48
2022-10-11T02:22:33.756Z,15.00
2022-10-11T02:23:36.914Z,14.66
2022-10-11T02:24:39.646Z,15.06
2022-10-11T02:25:37.099Z,15.06
2022-10-11T02:26:36.668Z,15.12
2022-10-11T02:27:37.914Z,15.14
2022-10-11T02:28:39.750Z,13.95
2022-10-11T02:29:42.323Z,14.54
2022-10-11T02:30:43.060Z,14.23
2022-10-11T02:31:43.558Z,14.96
2022-10-11T02:32:44.789Z,15.01
2022-10-11T02:34:00.735Z,14.91
2022-10-11T02:35:01.575Z,14.69
2022-10-11T02:36:08.643Z,15.05
2022-10-11T02:37:17.216Z,15.10
2022-10-11T02:38:34.795Z,14.20
2022-10-11T02:40:00.826Z,15.05
2022-10-11T02:41:10.343Z,14.65
2022-10-11T02:42:17.034Z,14.32
2022-10-11T02:43:40.043Z,14.98
2022-10-11T02:44:43.952Z,14.86
2022-10-11T02:46:05.402Z,15.01
2022-10-11T02:47:04.451Z,15.13
2022-10-11T02:48:02.508Z,15.13
2022-10-11T02:49:01.134Z,15.14
2022-10-11T02:50:00.100Z,14.89
2022-10-11T02:50:58.038Z,14.94
2022-10-11T02:51:58.657Z,15.14
2022-10-11T02:52:55.334Z,15.16
2022-10-11T02:53:52.061Z,15.21
2022-10-11T02:54:48.782Z,15.15
2022-10-11T02:55:48.513Z,14.33
2022-10-11T02:56:45.167Z,15.01
2022-10-11T02:57:41.951Z,14.71
2022-10-11T02:58:38.707Z,15.05
2022-10-11T02:59:35.421Z,15.00
2022-10-11T03:00:32.269Z,14.87
2022-10-11T03:01:29.026Z,15.05
2022-10-11T03:02:25.810Z,14.71
2022-10-11T03:03:22.496Z,14.72
2022-10-11T03:04:19.245Z,14.40
2022-10-11T03:05:15.946Z,15.08
2022-10-11T03:06:12.891Z,15.09
2022-10-11T03:07:09.610Z,14.84
2022-10-11T03:08:11.497Z,15.01
2022-10-11T03:09:08.372Z,15.06
2022-10-11T03:10:06.230Z,15.13
2022-10-11T03:11:02.920Z,15.20
2022-10-11T03:11:59.684Z,14.36
2022-10-11T03:12:56.624Z,15.08
2022-10-11T03:13:53.560Z,15.06
2022-10-11T03:14:50.287Z,15.04
2022-10-11T03:16:02.881Z,15.09
2022-10-11T03:17:17.284Z,15.00
2022-10-11T03:18:18.090Z,14.86
2022-10-11T03:19:19.164Z,14.86
2022-10-11T03:20:16.318Z,15.02
2022-10-11T03:21:13.280Z,14.99
2022-10-11T03:22:10.007Z,15.01
2022-10-11T03:23:06.707Z,15.13
2022-10-11T03:24:03.837Z,15.06
2022-10-11T03:25:04.111Z,15.00
2022-10-11T03:26:04.263Z,14.15
2022-10-11T03:27:01.258Z,14.92
2022-10-11T03:27:59.202Z,15.07
2022-10-11T03:28:56.029Z,14.82
2022-10-11T03:29:52.747Z,15.04
2022-10-11T03:30:51.272Z,15.00
2022-10-11T03:31:47.995Z,15.05
2022-10-11T03:32:44.735Z,14.85
2022-10-11T03:33:41.458Z,15.17
2022-10-11T03:34:38.156Z,15.07
2022-10-11T03:35:34.868Z,14.96
2022-10-11T03:36:31.568Z,14.65
2022-10-11T03:37:28.629Z,14.85
2022-10-11T03:38:25.360Z,14.89
2022-10-11T03:39:22.215Z,14.92
2022-10-11T03:40:18.877Z,15.02
2022-10-11T03:41:15.628Z,15.05
2022-10-11T03:42:13.740Z,14.80
2022-10-11T03:43:11.443Z,15.16
2022-10-11T03:44:08.176Z,15.08
2022-10-11T03:45:08.260Z,14.23
2022-10-11T03:46:05.164Z,15.12
2022-10-11T03:47:02.035Z,14.86
2022-10-11T03:47:58.754Z,14.82
2022-10-11T03:48:55.502Z,14.86
2022-10-11T03:49:52.194Z,15.00
2022-10-11T03:50:49.698Z,14.89
2022-10-11T03:51:46.381Z,14.89
2022-10-11T03:52:43.182Z,14.84
2022-10-11T03:53:39.865Z,15.04
2022-10-11T03:54:36.558Z,15.09
2022-10-11T03:55:33.651Z,15.02
2022-10-11T03:56:30.359Z,14.92
2022-10-11T03:57:27.562Z,14.82
2022-10-11T03:58:24.544Z,14.85
2022-10-11T03:59:21.233Z,14.56
2022-10-11T04:00:18.210Z,14.10
2022-10-11T04:01:15.158Z,14.38
2022-10-11T04:02:11.950Z,15.12
2022-10-11T04:03:08.727Z,15.02
2022-10-11T04:04:05.867Z,15.05
2022-10-11T04:05:03.001Z,15.00
2022-10-11T04:06:00.029Z,15.05
2022-10-11T04:06:56.749Z,14.81
2022-10-11T04:07:53.463Z,14.79
2022-10-11T04:08:50.202Z,14.80
2022-10-11T04:09:47.026Z,14.79
2022-10-11T04:10:43.866Z,14.91
2022-10-11T04:11:40.571Z,14.87
2022-10-11T04:12:39.175Z,14.74
2022-10-11T04:13:36.439Z,14.36
2022-10-11T04:14:33.180Z,14.63
2022-10-11T04:15:29.905Z,12.72
2022-10-11T04:16:26.595Z,14.69
2022-10-11T04:17:23.705Z,13.86
2022-10-11T04:18:20.400Z,14.70
2022-10-11T04:19:17.126Z,14.71
2022-10-11T04:20:14.085Z,14.84
2022-10-11T04:21:10.781Z,14.61
2022-10-11T04:22:07.721Z,14.84
2022-10-11T04:23:04.496Z,14.60
2022-10-11T04:24:01.185Z,14.79
2022-10-11T04:24:58.290Z,13.52
2022-10-11T04:25:55.015Z,14.84
2022-10-11T04:26:51.846Z,14.70
2022-10-11T04:27:48.685Z,14.73
2022-10-11T04:28:45.558Z,14.53
2022-10-11T04:29:42.329Z,13.61
2022-10-11T04:30:39.111Z,14.47
2022-10-11T04:31:35.835Z,14.01
2022-10-11T04:32:32.757Z,13.88
2022-10-11T04:33:29.591Z,14.49
2022-10-11T04:34:26.358Z,14.22
2022-10-11T04:35:23.036Z,13.54
2022-10-11T04:36:19.861Z,14.39
2022-10-11T04:37:16.743Z,14.52
2022-10-11T04:38:13.441Z,14.56
2022-10-11T04:39:10.558Z,14.56
2022-10-11T04:40:08.738Z,14.10
2022-10-11T04:41:15.502Z,13.53
2022-10-11T04:42:12.290Z,14.43
2022-10-11T04:43:09.056Z,14.62
2022-10-11T04:44:05.799Z,14.66
2022-10-11T04:45:02.539Z,14.66
2022-10-11T04:45:59.235Z,14.15
2022-10-11T04:46:56.133Z,14.11
2022-10-11T04:47:52.855Z,14.01
2022-10-11T04:48:50.614Z,14.31
2022-10-11T04:49:47.303Z,14.32
2022-10-11T04:50:45.811Z,14.06
2022-10-11T04:51:42.509Z,14.27
2022-10-11T04:52:39.249Z,13.47
2022-10-11T04:53:36.124Z,13.93
2022-10-11T04:54:32.820Z,14.24
2022-10-11T04:55:29.555Z,14.35
2022-10-11T04:56:26.264Z,14.37
2022-10-11T04:57:22.951Z,14.50
2022-10-11T04:58:19.618Z,14.44
2022-10-11T04:59:16.333Z,14.25
2022-10-11T05:00:13.558Z,13.96
2022-10-11T05:01:11.525Z,14.52
2022-10-11T05:02:08.303Z,14.48
2022-10-11T05:03:05.352Z,14.17
2022-10-11T05:04:02.086Z,14.37
2022-10-11T05:04:58.978Z,14.31
2022-10-11T05:05:55.677Z,13.87
2022-10-11T05:06:52.399Z,14.14
2022-10-11T05:07:49.113Z,14.34
2022-10-11T05:08:45.863Z,14.50
2022-10-11T05:09:42.686Z,14.20
2022-10-11T05:10:39.368Z,14.13
2022-10-11T05:11:36.054Z,14.64
2022-10-11T05:12:32.759Z,14.61
2022-10-11T05:13:31.194Z,13.69
2022-10-11T05:14:27.908Z,14.55
2022-10-11T05:15:24.651Z,14.62
2022-10-11T05:16:21.381Z,14.67
2022-10-11T05:17:18.114Z,14.51
2022-10-11T05:18:15.171Z,14.83
2022-10-11T05:19:12.403Z,14.76
2022-10-11T05:20:09.892Z,14.89
2022-10-11T05:21:08.110Z,14.62
2022-10-11T05:22:04.850Z,14.48
2022-10-11T05:23:01.571Z,14.74
2022-10-11T05:23:58.714Z,14.67
2022-10-11T05:24:55.429Z,14.87
2022-10-11T05:25:52.137Z,14.84
2022-10-11T05:26:49.822Z,14.45
2022-10-11T05:27:46.612Z,15.02
2022-10-11T05:28:44.005Z,14.73
2022-10-11T05:29:40.828Z,14.79
2022-10-11T05:30:37.501Z,14.95
2022-10-11T05:31:34.203Z,13.83
2022-10-11T05:32:31.582Z,14.58
2022-10-11T05:33:28.384Z,14.45
2022-10-11T05:34:25.138Z,14.59
2022-10-11T05:35:22.419Z,15.19
2022-10-11T05:36:19.190Z,11.70
2022-10-11T05:37:15.919Z,11.62
2022-10-11T05:38:12.958Z,14.81
2022-10-11T05:39:09.721Z,14.53
2022-10-11T05:40:07.292Z,14.35
2022-10-11T05:41:05.143Z,13.92
2022-10-11T05:42:03.186Z,14.34
2022-10-11T05:43:01.333Z,14.27
2022-10-11T05:43:58.086Z,14.25
2022-10-11T05:44:54.864Z,14.29
2022-10-11T05:45:51.613Z,14.37
2022-10-11T05:46:48.361Z,14.42
2022-10-11T05:47:45.054Z,13.53
2022-10-11T05:48:41.897Z,14.46
2022-10-11T05:49:38.592Z,14.59
2022-10-11T05:50:36.169Z,13.77
2022-10-11T05:51:32.970Z,14.13
2022-10-11T05:52:30.800Z,14.10
2022-10-11T05:53:27.994Z,14.43
2022-10-11T05:54:24.740Z,14.55
2022-10-11T05:55:21.433Z,14.71
2022-10-11T05:56:24.266Z,14.63
2022-10-11T05:57:20.957Z,14.90
2022-10-11T05:59:35.153Z,15.05
2022-10-11T06:00:31.893Z,14.77
2022-10-11T06:01:28.777Z,14.62
2022-10-11T06:02:25.535Z,14.88
2022-10-11T06:03:23.532Z,14.78
2022-10-11T06:04:20.222Z,14.91
2022-10-11T06:05:17.142Z,15.18
2022-10-11T06:06:13.874Z,15.34
2022-10-11T06:07:10.571Z,15.36
2022-10-11T06:08:08.819Z,15.21
2022-10-11T06:09:05.670Z,15.16
2022-10-11T06:10:03.123Z,15.28
2022-10-11T06:10:59.819Z,15.56
2022-10-11T06:11:57.172Z,15.38
2022-10-11T06:12:54.082Z,15.22
2022-10-11T06:13:54.098Z,15.15
2022-10-11T06:14:50.773Z,15.59
2022-10-11T06:15:50.531Z,15.26
2022-10-11T06:16:47.262Z,15.59
2022-10-11T06:17:44.328Z,15.71
2022-10-11T06:18:41.118Z,15.15
2022-10-11T06:19:37.810Z,15.58
2022-10-11T06:20:34.633Z,15.04
2022-10-11T06:21:31.857Z,15.33
2022-10-11T06:22:28.564Z,15.11
2022-10-11T06:23:26.150Z,14.48
2022-10-11T06:24:22.842Z,15.41
2022-10-11T06:25:21.888Z,15.22
2022-10-11T06:26:19.570Z,15.30
2022-10-11T06:27:16.202Z,15.26
2022-10-11T06:28:13.041Z,15.39
2022-10-11T06:29:10.047Z,14.97
2022-10-11T06:30:07.491Z,15.33
2022-10-11T06:31:05.793Z,14.64
2022-10-11T06:32:02.748Z,15.17
2022-10-11T06:33:04.483Z,15.03
2022-10-11T06:34:01.808Z,15.50
2022-10-11T06:34:58.685Z,15.34
2022-10-11T06:36:00.450Z,15.33
2022-10-11T06:36:57.231Z,15.25
2022-10-11T06:37:54.007Z,15.41
2022-10-11T06:38:55.126Z,15.40
2022-10-11T06:39:51.826Z,15.47
2022-10-11T06:40:48.570Z,15.43
2022-10-11T06:41:45.372Z,15.49
2022-10-11T06:42:42.075Z,15.56
2022-10-11T06:43:38.882Z,15.63
2022-10-11T06:44:35.589Z,15.68
2022-10-11T06:45:32.347Z,15.29
2022-10-11T06:46:32.901Z,15.53
2022-10-11T06:47:29.615Z,14.83
2022-10-11T06:48:26.326Z,15.32
2022-10-11T06:49:23.605Z,15.47
2022-10-11T06:50:40.614Z,15.27
2022-10-11T06:51:37.189Z,15.36
2022-10-11T06:52:33.866Z,15.23
2022-10-11T06:53:30.705Z,15.38
2022-10-11T06:54:27.530Z,15.32
2022-10-11T06:55:24.451Z,15.61
2022-10-11T06:56:21.721Z,15.48
2022-10-11T06:57:18.532Z,15.40
2022-10-11T06:58:15.339Z,15.03
2022-10-11T06:59:13.394Z,15.62
2022-10-11T07:00:12.799Z,15.61
2022-10-11T07:01:13.337Z,15.36
2022-10-11T07:02:10.627Z,15.16
2022-10-11T07:03:08.061Z,15.32
2022-10-11T07:04:04.981Z,15.51
2022-10-11T07:05:01.675Z,15.42
2022-10-11T07:06:03.089Z,15.40
2022-10-11T07:06:59.813Z,15.64
2022-10-11T07:07:56.581Z,15.92
2022-10-11T07:08:53.798Z,15.87
2022-10-11T07:09:50.554Z,15.56
2022-10-11T07:10:47.381Z,15.92
2022-10-11T07:11:44.300Z,15.70
2022-10-11T07:12:44.806Z,15.84
2022-10-11T07:13:42.054Z,15.41
2022-10-11T07:14:38.785Z,15.72
2022-10-11T07:15:38.568Z,16.01
2022-10-11T07:16:36.558Z,15.95
2022-10-11T07:17:33.418Z,15.91
2022-10-11T07:18:30.509Z,15.75
2022-10-11T07:19:27.535Z,16.01
2022-10-11T07:20:24.424Z,15.87
2022-10-11T07:21:21.263Z,15.83
2022-10-11T07:22:18.035Z,15.09
2022-10-11T07:23:14.782Z,15.73
2022-10-11T07:24:11.633Z,15.96
2022-10-11T07:25:08.855Z,15.94
2022-10-11T07:26:07.438Z,15.51
2022-10-11T07:27:04.400Z,15.97
2022-10-11T07:28:01.123Z,15.79
2022-10-11T07:28:57.868Z,15.00
2022-10-11T07:29:54.735Z,15.96
2022-10-11T07:30:51.807Z,15.41
2022-10-11T07:31:48.656Z,15.63
2022-10-11T07:32:45.463Z,15.62
2022-10-11T07:33:42.451Z,15.65
2022-10-11T07:34:39.146Z,15.74
2022-10-11T07:35:36.561Z,16.05
2022-10-11T07:36:33.381Z,15.95
2022-10-11T07:37:30.143Z,15.96
2022-10-11T07:38:26.937Z,16.11
2022-10-11T07:39:23.675Z,15.89
2022-10-11T07:40:20.381Z,15.79
2022-10-11T07:41:18.138Z,15.94
2022-10-11T07:42:14.847Z,15.87
2022-10-11T07:43:13.247Z,16.00
2022-10-11T07:44:09.970Z,15.83
2022-10-11T07:45:07.004Z,16.05
2022-10-11T07:46:05.445Z,15.76
2022-10-11T07:47:02.508Z,15.75
2022-10-11T07:47:59.328Z,16.07
2022-10-11T07:48:56.195Z,16.28
2022-10-11T07:49:52.961Z,15.92
2022-10-11T07:50:49.769Z,16.22
2022-10-11T07:51:46.481Z,16.22
2022-10-11T07:52:43.195Z,16.34
2022-10-11T07:53:48.895Z,16.29
2022-10-11T07:54:48.618Z,16.37
2022-10-11T07:55:45.363Z,16.15
2022-10-11T07:56:42.075Z,16.29
2022-10-11T07:57:39.090Z,15.90
2022-10-11T07:58:35.870Z,16.06
2022-10-11T07:59:32.686Z,16.45
2022-10-11T08:00:29.502Z,16.32
2022-10-11T08:01:28.409Z,16.42
2022-10-11T08:02:25.195Z,16.34
2022-10-11T08:03:21.971Z,16.31
2022-10-11T08:04:18.751Z,16.42
2022-10-11T08:05:16.031Z,16.30
2022-10-11T08:06:17.285Z,16.58
2022-10-11T08:07:13.965Z,16.42
2022-10-11T08:08:10.653Z,16.41
2022-10-11T08:09:07.466Z,16.53
2022-10-11T08:10:06.549Z,16.42
2022-10-11T08:11:03.390Z,16.18
2022-10-11T08:12:00.119Z,15.97
2022-10-11T08:13:00.635Z,16.05
2022-10-11T08:14:02.104Z,16.04
2022-10-11T08:14:59.227Z,15.86
2022-10-11T08:15:55.989Z,15.56
2022-10-11T08:16:52.757Z,16.53
2022-10-11T08:17:49.474Z,16.49
2022-10-11T08:18:46.223Z,16.77
2022-10-11T08:19:42.938Z,15.53
2022-10-11T08:20:40.390Z,15.47
2022-10-11T08:21:37.235Z,16.42
2022-10-11T08:22:33.966Z,16.24
2022-10-11T08:23:30.636Z,16.47
2022-10-11T08:24:27.493Z,16.09
2022-10-11T08:25:24.430Z,16.74
2022-10-11T08:26:21.456Z,16.52
2022-10-11T08:27:18.830Z,16.64
2022-10-11T08:28:17.921Z,16.80
2022-10-11T08:29:14.957Z,17.10
2022-10-11T08:30:12.361Z,16.99
2022-10-11T08:31:13.023Z,16.98
2022-10-11T08:32:12.042Z,16.95
2022-10-11T08:33:08.861Z,16.85
2022-10-11T08:34:05.778Z,17.08
2022-10-11T08:35:02.807Z,15.46
2022-10-11T08:36:03.785Z,16.84
2022-10-11T08:37:00.989Z,16.86
2022-10-11T08:37:57.671Z,17.18
2022-10-11T08:38:54.364Z,17.21
2022-10-11T08:39:51.069Z,16.21
2022-10-11T08:40:55.304Z,16.81
2022-10-11T08:42:10.899Z,16.91
2022-10-11T08:43:34.742Z,17.01
2022-10-11T08:45:10.002Z,17.17
2022-10-11T08:46:10.073Z,16.70
2022-10-11T08:47:24.983Z,16.82
2022-10-11T08:48:36.870Z,16.88
2022-10-11T08:49:34.787Z,16.41
2022-10-11T08:50:31.990Z,16.14
2022-10-11T08:51:38.243Z,16.59
2022-10-11T08:52:42.975Z,17.06
2022-10-11T08:53:49.570Z,17.17
2022-10-11T08:54:58.420Z,17.12
2022-10-11T08:55:55.602Z,17.23
2022-10-11T08:56:52.584Z,16.78
2022-10-11T08:57:55.282Z,16.53
2022-10-11T08:59:00.778Z,17.05
2022-10-11T09:00:01.266Z,16.92
2022-10-11T09:01:00.522Z,17.14
2022-10-11T09:02:43.916Z,17.17
2022-10-11T09:03:48.147Z,16.51
2022-10-11T09:04:47.290Z,16.96
2022-10-11T09:06:13.561Z,16.11
2022-10-11T09:07:21.479Z,17.11
2022-10-11T09:08:18.125Z,16.81
2022-10-11T09:09:27.178Z,16.87
2022-10-11T09:10:54.220Z,16.81
2022-10-11T09:12:00.381Z,17.01
2022-10-11T09:13:31.081Z,16.53
2022-10-11T09:15:02.914Z,16.38
2022-10-11T09:16:08.843Z,16.77
2022-10-11T09:17:36.568Z,17.08
2022-10-11T09:18:41.079Z,17.03
2022-10-11T09:20:27.219Z,17.26
2022-10-11T09:22:00.378Z,17.40
2022-10-11T09:22:56.998Z,17.41
2022-10-11T09:24:09.159Z,17.38
2022-10-11T09:25:31.034Z,17.25
2022-10-11T09:26:34.826Z,17.22
2022-10-11T09:28:01.394Z,17.33
2022-10-11T09:29:12.838Z,15.54
2022-10-11T09:30:11.552Z,17.04
2022-10-11T09:31:11.161Z,16.47
2022-10-11T09:32:16.150Z,16.85
2022-10-11T09:33:46.057Z,17.18
2022-10-11T09:34:43.105Z,17.34
2022-10-11T09:35:46.189Z,17.27
2022-10-11T09:37:05.677Z,17.31
2022-10-11T09:38:11.257Z,17.20
2022-10-11T09:39:36.632Z,17.51
2022-10-11T09:40:48.327Z,17.38
2022-10-11T09:41:56.786Z,17.64
2022-10-11T09:42:53.487Z,17.58
2022-10-11T09:43:52.463Z,17.34
2022-10-11T09:44:51.548Z,17.50
2022-10-11T09:45:49.661Z,16.93
2022-10-11T09:46:49.723Z,17.44
2022-10-11T09:47:47.282Z,17.82
2022-10-11T09:48:44.741Z,17.93
2022-10-11T09:49:50.563Z,18.14
2022-10-11T09:50:49.199Z,18.06
2022-10-11T09:51:59.077Z,18.05
2022-10-11T09:52:59.944Z,18.33
2022-10-11T09:54:04.974Z,18.52
2022-10-11T09:55:03.331Z,18.26
2022-10-11T09:56:05.229Z,18.24
2022-10-11T09:57:02.189Z,17.84
2022-10-11T09:57:59.523Z,17.83
2022-10-11T09:59:08.648Z,18.13
2022-10-11T10:00:26.723Z,18.03
2022-10-11T10:01:25.713Z,18.26
2022-10-11T10:02:24.127Z,18.38
2022-10-11T10:03:29.125Z,18.17
2022-10-11T10:04:25.819Z,18.05
2022-10-11T10:05:26.058Z,17.70
2022-10-11T10:06:26.064Z,18.12
2022-10-11T10:07:22.870Z,18.13
2022-10-11T10:08:24.928Z,18.27
2022-10-11T10:09:27.255Z,17.96
2022-10-11T10:10:34.196Z,18.34
2022-10-11T10:11:37.257Z,18.24
2022-10-11T10:12:34.026Z,18.43
2022-10-11T10:13:47.953Z,18.47
2022-10-11T10:15:15.288Z,18.30
2022-10-11T10:16:31.845Z,18.59
2022-10-11T10:17:28.662Z,17.31
2022-10-11T10:18:44.150Z,18.32
2022-10-11T10:19:49.138Z,18.30
2022-10-11T10:20:56.712Z,17.89
2022-10-11T10:21:56.506Z,18.23
2022-10-11T10:22:54.095Z,18.51
2022-10-11T10:23:55.434Z,17.70
2022-10-11T10:24:54.069Z,17.91
2022-10-11T10:25:51.826Z,18.37
2022-10-11T10:27:10.437Z,18.03
2022-10-11T10:28:24.329Z,17.94
2022-10-11T10:29:21.163Z,18.10
2022-10-11T10:30:19.954Z,18.25
2022-10-11T10:31:23.670Z,18.38
2022-10-11T10:32:30.713Z,17.45
2022-10-11T10:33:34.226Z,18.45
2022-10-11T10:34:35.522Z,18.52
2022-10-11T10:36:12.582Z,18.52
2022-10-11T10:37:32.333Z,17.42
2022-10-11T10:38:33.579Z,18.92
2022-10-11T10:39:50.791Z,18.76
2022-10-11T10:40:58.083Z,18.42
2022-10-11T10:41:56.067Z,18.59
2022-10-11T10:42:52.852Z,18.95
2022-10-11T10:43:58.163Z,18.66
2022-10-11T10:44:58.502Z,17.96
2022-10-11T10:46:10.325Z,18.18
2022-10-11T10:47:27.592Z,17.85
2022-10-11T10:48:27.242Z,18.53
2022-10-11T10:49:53.246Z,18.03
2022-10-11T10:51:08.347Z,18.14
2022-10-11T10:52:54.650Z,18.57
2022-10-11T10:54:09.881Z,18.59
2022-10-11T10:55:40.658Z,18.93
2022-10-11T10:56:57.348Z,18.86
2022-10-11T10:58:12.883Z,18.72
2022-10-11T10:59:30.345Z,18.25
2022-10-11T11:00:43.282Z,17.27
2022-10-11T11:01:54.313Z,17.93
2022-10-11T11:03:30.994Z,18.48
2022-10-11T11:04:35.268Z,18.27
2022-10-11T11:05:53.323Z,18.56
2022-10-11T11:06:59.042Z,18.41
2022-10-11T11:08:09.853Z,18.05
2022-10-11T11:09:27.619Z,18.48
2022-10-11T11:10:39.202Z,18.43
2022-10-11T11:11:58.822Z,18.62
2022-10-11T11:13:24.068Z,18.55
2022-10-11T11:14:45.919Z,18.75
2022-10-11T11:16:12.022Z,18.50
2022-10-11T11:17:42.438Z,18.47
2022-10-11T11:19:13.496Z,18.81
2022-10-11T11:20:26.137Z,18.63
2022-10-11T11:21:55.569Z,17.65
2022-10-11T11:23:22.029Z,18.38
2022-10-11T11:24:38.768Z,17.85
2022-10-11T11:25:46.970Z,18.09
2022-10-11T11:27:06.048Z,18.16
2022-10-11T11:28:44.928Z,18.61
2022-10-11T11:30:05.606Z,18.61
2022-10-11T11:31:14.990Z,18.51
2022-10-11T11:32:26.750Z,18.49
2022-10-11T11:33:48.925Z,18.64
2022-10-11T11:34:54.050Z,18.63
2022-10-11T11:35:56.380Z,18.93
2022-10-11T11:37:01.895Z,18.61
2022-10-11T11:38:09.495Z,18.16
2022-10-11T11:39:17.550Z,18.02
2022-10-11T11:40:18.510Z,18.55
2022-10-11T11:41:51.433Z,18.55
2022-10-11T11:43:01.343Z,18.48
2022-10-11T11:44:16.066Z,17.78
2022-10-11T11:45:23.920Z,18.39
2022-10-11T11:46:40.327Z,18.20
2022-10-11T11:47:48.652Z,18.05
2022-10-11T11:48:48.771Z,18.60
2022-10-11T11:49:53.599Z,18.68
2022-10-11T11:51:15.016Z,18.88
2022-10-11T11:52:32.034Z,18.85
2022-10-11T11:53:51.738Z,18.66
2022-10-11T11:55:04.251Z,18.69
2022-10-11T11:56:09.597Z,18.93
2022-10-11T11:57:24.157Z,18.91
2022-10-11T11:58:53.523Z,18.71
2022-10-11T12:00:13.161Z,18.65
2022-10-11T12:01:32.842Z,18.78
2022-10-11T12:02:43.264Z,17.96
2022-10-11T12:03:44.464Z,18.70
2022-10-11T12:04:45.744Z,18.95
2022-10-11T12:06:17.405Z,18.95
2022-10-11T12:07:21.414Z,18.14
2022-10-11T12:08:33.994Z,18.79
2022-10-11T12:09:32.527Z,18.56
2022-10-11T12:10:32.019Z,18.57
2022-10-11T12:11:51.248Z,18.53
2022-10-11T12:12:48.358Z,18.13
2022-10-11T12:13:47.833Z,18.78
2022-10-11T12:14:44.814Z,18.73
2022-10-11T12:15:59.254Z,18.50
2022-10-11T12:17:17.175Z,18.64
2022-10-11T12:18:17.142Z,18.78
2022-10-11T12:19:14.449Z,18.97
2022-10-11T12:20:23.089Z,18.97
2022-10-11T12:21:40.419Z,18.80
2022-10-11T12:22:49.315Z,18.84
2022-10-11T12:23:52.479Z,18.83
2022-10-11T12:25:33.189Z,18.83
2022-10-11T12:26:29.864Z,18.88
2022-10-11T12:27:40.448Z,18.94
2022-10-11T12:28:37.173Z,18.37
2022-10-11T12:29:49.613Z,18.51
2022-10-11T12:30:50.893Z,18.66
2022-10-11T12:32:30.458Z,18.59
2022-10-11T12:33:33.410Z,18.35
2022-10-11T12:35:42.449Z,18.27
2022-10-11T12:36:43.058Z,17.89
2022-10-11T12:37:39.730Z,18.61
2022-10-11T12:38:39.957Z,18.37
2022-10-11T12:39:46.627Z,18.12
2022-10-11T12:40:47.098Z,18.51
2022-10-11T12:41:55.705Z,18.70
2022-10-11T12:43:14.210Z,18.63
2022-10-11T12:44:20.312Z,18.65
2022-10-11T12:45:16.960Z,18.60
2022-10-11T12:46:28.853Z,18.67
2022-10-11T12:47:59.872Z,18.58
2022-10-11T12:49:05.358Z,18.24
2022-10-11T12:50:28.035Z,17.53
2022-10-11T12:51:30.926Z,18.58
2022-10-11T12:52:48.418Z,18.46
2022-10-11T12:54:27.381Z,18.29
2022-10-11T12:56:07.341Z,18.19
2022-10-11T12:57:22.315Z,18.48
2022-10-11T12:58:29.617Z,18.61
2022-10-11T12:59:27.586Z,18.36
2022-10-11T13:00:31.485Z,17.78
2022-10-11T13:01:36.248Z,18.09
2022-10-11T13:02:44.490Z,18.34
2022-10-11T13:03:52.997Z,18.55
2022-10-11T13:04:50.035Z,18.24
2022-10-11T13:05:52.350Z,18.38
2022-10-11T13:06:53.915Z,18.03
2022-10-11T13:07:53.217Z,18.32
2022-10-11T13:09:01.939Z,18.26
2022-10-11T13:09:58.738Z,18.34
2022-10-11T13:10:59.365Z,18.02
2022-10-11T13:11:59.004Z,18.28
2022-10-11T13:12:59.693Z,18.33
2022-10-11T13:14:07.926Z,18.32
2022-10-11T13:15:12.744Z,18.49
2022-10-11T13:16:16.964Z,18.34
2022-10-11T13:17:23.468Z,18.47
2022-10-11T13:18:23.954Z,18.10
2022-10-11T13:19:23.458Z,18.35
2022-10-11T13:20:24.859Z,18.22
2022-10-11T13:21:29.307Z,18.36
2022-10-11T13:22:26.694Z,18.34
2022-10-11T13:23:37.964Z,18.32
2022-10-11T13:24:38.626Z,17.47
2022-10-11T13:25:38.063Z,18.30
2022-10-11T13:26:34.816Z,18.29
2022-10-11T13:27:31.830Z,17.83
2022-10-11T13:28:34.128Z,17.74
2022-10-11T13:29:38.271Z,18.25